Nearby METAR Reports

 

NZWN - Wellington Intl, New Zealand
Distance from station: E 66km
Updated: 23/02/2024 05:30
Mostly cloudy
Mostly cloudy
 Wind from N
Wind: N 22 km/h
Temperature: 19°C
Dew Point: 15°C
Humidity: 78%
Barometer: 1021 hPa
Clouds: Mostly cloudy
Visibility: 10 km
Cloud details: Few Clouds 579 m
Mostly cloudy 792 m
Mostly cloudy 945 m
2024/02/22 16:30 NZWN 221630Z AUTO 35012KT 9999 FEW019/// BKN026/// BKN031/// 19/15 Q1021
NZCH - Christchurch Int, New Zealand
Distance from station: SSW 270km
Updated: 23/02/2024 05:30
Mostly cloudy
Mostly cloudy
 Wind from W
Wind: W 7 km/h
Temperature: 11°C
Dew Point: 11°C
Humidity: 100%
Barometer: 1019 hPa
Clouds: Mostly cloudy
Visibility: 10 km
Cloud details: Mostly cloudy 335 m
2024/02/22 16:30 NZCH 221630Z AUTO 26004KT 9999 BKN011/// 11/11 Q1019